Time;durP1;ratioP1;P1;durP2;ratioP2;P2;SDS_P1;SDS_P2;PMS_P1;PMS_P2;Temp;Humidity;BMP_temperature;BMP_pressure;BME280_temperature;BME280_humidity;BME280_pressure;Samples;Min_cycle;Max_cycle;Signal;HPM_P1;HPM_P2
2021/08/21 00:00:25;;;;;;;;;3.00;3.00;;;;;22.72;47.91;100961.19;5057117;28;46276;-86
2021/08/21 00:02:51;;;;;;;;;2.25;2.25;;;;;22.43;48.09;100912.97;5056771;28;45688;-86
2021/08/21 00:05:16;;;;;;;;;3.50;3.00;;;;;22.36;47.90;100896.81;5038381;28;45668;-85
2021/08/21 00:07:41;;;;;;;;;4.00;3.00;;;;;22.42;47.80;100919.31;5038688;28;45744;-86
2021/08/21 00:10:09;;;;;;;;;2.00;2.00;;;;;22.68;47.74;100961.69;5056488;28;45905;-86
2021/08/21 00:12:35;;;;;;;;;3.00;3.00;;;;;22.50;48.17;100933.44;5038322;28;47378;-86
2021/08/21 00:15:01;;;;;;;;;3.00;3.00;;;;;22.64;48.20;100957.72;5038416;28;46232;-86
2021/08/21 00:17:26;;;;;;;;;0.00;0.00;;;;;22.22;48.03;100886.09;5072372;28;45829;-86
2021/08/21 00:23:14;;;;;;;;;4.00;4.00;;;;;22.52;48.45;100939.44;5056716;28;45887;-85
2021/08/21 00:25:39;;;;;;;;;3.00;3.00;;;;;22.43;48.28;100924.47;5038223;28;45472;-86
2021/08/21 00:28:05;;;;;;;;;4.00;4.00;;;;;22.46;47.98;100921.44;5057801;28;45669;-86
2021/08/21 00:30:30;;;;;;;;;4.00;4.00;;;;;22.23;47.99;100885.91;5039584;28;47834;-85
2021/08/21 00:32:56;;;;;;;;;4.00;4.00;;;;;22.56;48.31;100938.06;5039769;28;47078;-85
2021/08/21 00:35:22;;;;;;;;;4.75;4.00;;;;;22.30;48.27;100896.69;5031219;28;45673;-85
2021/08/21 00:37:50;;;;;;;;;3.00;3.00;;;;;22.34;48.31;100904.19;5052209;28;45692;-85
2021/08/21 00:40:15;;;;;;;;;4.00;3.00;;;;;22.46;48.21;100917.94;5029457;28;46850;-87
2021/08/21 00:42:40;;;;;;;;;2.50;2.50;;;;;22.30;48.94;100888.69;5033758;28;47253;-86
2021/08/21 00:45:07;;;;;;;;;3.00;3.00;;;;;22.36;48.47;100899.50;5026319;28;45576;-85
2021/08/21 00:47:32;;;;;;;;;3.00;3.00;;;;;22.29;48.50;100885.22;5042285;28;45448;-84
2021/08/21 00:53:22;;;;;;;;;4.00;3.75;;;;;22.29;48.91;100895.88;5038051;28;45688;-86
2021/08/21 00:55:48;;;;;;;;;4.00;4.00;;;;;22.21;48.51;100885.25;5037970;28;45654;-86
2021/08/21 00:58:13;;;;;;;;;4.50;4.00;;;;;22.23;48.68;100885.09;5018863;28;46041;-86
2021/08/21 01:00:39;;;;;;;;;4.25;3.00;;;;;22.13;49.15;100870.13;5036914;28;45569;-87
2021/08/21 01:03:04;;;;;;;;;3.25;3.25;;;;;22.11;48.60;100860.63;5020210;28;47054;-86
2021/08/21 01:05:30;;;;;;;;;4.75;4.00;;;;;22.34;48.66;100906.03;5019018;28;45694;-86
2021/08/21 01:07:55;;;;;;;;;4.00;4.00;;;;;22.43;49.00;100913.81;5021006;28;45489;-86
2021/08/21 01:10:22;;;;;;;;;3.50;3.50;;;;;22.02;48.68;100846.53;5055259;28;46847;-85
2021/08/21 01:12:53;;;;;;;;;5.00;5.00;;;;;22.39;49.13;100915.19;5040055;28;45576;-87
2021/08/21 01:15:21;;;;;;;;;4.00;3.25;;;;;22.37;48.63;100909.16;5021655;28;46000;-86
2021/08/21 01:17:47;;;;;;;;;5.75;3.75;;;;;22.36;48.92;100917.34;5021417;28;45953;-86
2021/08/21 01:23:37;;;;;;;;;5.00;4.00;;;;;22.16;49.35;100898.31;5043865;28;45527;-87
2021/08/21 01:26:02;;;;;;;;;5.25;5.25;;;;;22.27;49.31;100918.41;5044099;28;45724;-86
2021/08/21 01:28:28;;;;;;;;;6.00;5.00;;;;;21.96;49.00;100865.91;5042907;28;45529;-87
2021/08/21 01:30:53;;;;;;;;;3.25;3.25;;;;;22.25;48.86;100915.09;5051672;28;46413;-87
2021/08/21 01:33:19;;;;;;;;;3.50;3.00;;;;;22.00;49.40;100880.56;5036165;28;46482;-87
2021/08/21 01:35:44;;;;;;;;;4.50;4.00;;;;;21.95;49.04;100866.91;5042332;28;45960;-87
2021/08/21 01:38:09;;;;;;;;;3.50;3.50;;;;;22.07;49.52;100878.03;5057546;28;45565;-87
2021/08/21 01:40:35;;;;;;;;;5.00;4.75;;;;;22.22;49.10;100916.28;5056667;28;46462;-86
2021/08/21 01:43:00;;;;;;;;;4.00;4.00;;;;;22.05;49.66;100880.88;5057374;28;46983;-85
2021/08/21 01:45:26;;;;;;;;;4.50;4.00;;;;;22.05;49.54;100878.19;5076079;28;45837;-85
2021/08/21 01:47:51;;;;;;;;;4.00;4.00;;;;;21.95;49.37;100866.09;5075857;28;45610;-86
2021/08/21 01:53:39;;;;;;;;;4.75;4.75;;;;;22.15;49.70;100894.81;5075366;28;46002;-87
2021/08/21 01:56:04;;;;;;;;;5.75;5.75;;;;;22.03;49.55;100868.69;5057550;28;45927;-86
2021/08/21 01:58:30;;;;;;;;;3.50;3.00;;;;;22.13;49.47;100885.31;5091352;27;45825;-86
2021/08/21 02:00:55;;;;;;;;;4.00;4.00;;;;;21.97;49.46;100874.75;5090857;27;48193;-87
2021/08/21 02:03:21;;;;;;;;;5.00;4.00;;;;;21.92;49.42;100855.72;5056872;28;47100;-84
2021/08/21 02:05:46;;;;;;;;;4.00;4.00;;;;;22.16;49.77;100898.31;5075494;28;45764;-84
2021/08/21 02:08:11;;;;;;;;;4.75;4.75;;;;;21.91;49.61;100856.75;5057115;28;45941;-85
2021/08/21 02:10:37;;;;;;;;;4.00;4.00;;;;;21.92;49.87;100861.06;5056830;28;47488;-85
2021/08/21 02:13:03;;;;;;;;;5.00;4.75;;;;;21.88;49.34;100857.09;5076234;28;45623;-85
2021/08/21 02:15:28;;;;;;;;;5.00;5.00;;;;;21.94;49.65;100859.06;5090682;27;45529;-85
2021/08/21 02:17:53;;;;;;;;;6.25;5.25;;;;;21.91;49.87;100846.91;5076263;28;45600;-85
2021/08/21 02:23:41;;;;;;;;;4.25;4.00;;;;;21.98;49.61;100865.72;5075047;28;45963;-86
2021/08/21 02:26:06;;;;;;;;;5.00;4.50;;;;;22.05;50.15;100880.88;5056030;28;45620;-84
2021/08/21 02:28:32;;;;;;;;;5.25;5.00;;;;;22.04;50.10;100895.22;5056305;28;45542;-86
2021/08/21 02:30:57;;;;;;;;;5.00;4.50;;;;;22.04;49.95;100889.88;5056447;28;48307;-87
2021/08/21 02:33:23;;;;;;;;;7.00;6.75;;;;;21.70;49.80;100839.50;5057105;28;45654;-87
2021/08/21 02:35:48;;;;;;;;;5.75;5.00;;;;;21.94;50.08;100875.06;5056648;28;45992;-86
2021/08/21 02:38:14;;;;;;;;;5.00;4.00;;;;;21.92;49.90;100872.56;5075952;28;45512;-86
2021/08/21 02:40:39;;;;;;;;;4.00;4.00;;;;;21.84;50.04;100858.44;5056735;28;48405;-86
2021/08/21 02:43:05;;;;;;;;;5.00;5.00;;;;;21.81;49.81;100854.28;5075620;28;46220;-87
2021/08/21 02:45:31;;;;;;;;;4.75;4.75;;;;;21.63;50.12;100833.22;5076068;28;45530;-86
2021/08/21 02:47:56;;;;;;;;;5.00;5.00;;;;;21.72;50.03;100850.84;5092165;27;45818;-86
2021/08/21 02:53:43;;;;;;;;;5.50;5.25;;;;;21.95;49.74;100885.59;5079827;28;45995;-86
2021/08/21 02:56:09;;;;;;;;;5.25;5.00;;;;;21.90;49.79;100868.41;5064181;28;45558;-86
2021/08/21 02:58:34;;;;;;;;;5.50;4.50;;;;;21.68;49.98;100836.19;5064590;28;45823;-86
2021/08/21 03:01:00;;;;;;;;;4.25;4.25;;;;;21.78;50.34;100860.81;5063556;28;48244;-86
2021/08/21 03:03:25;;;;;;;;;4.75;4.00;;;;;21.72;50.27;100839.34;5057851;28;46129;-86
2021/08/21 03:09:12;;;;;;;;;5.00;4.00;;;;;21.85;50.06;100863.63;5076907;28;45466;-87
2021/08/21 03:11:38;;;;;;;;;6.00;6.00;;;;;21.74;50.13;100843.50;5059984;28;47286;-87
2021/08/21 03:14:03;;;;;;;;;5.00;5.00;;;;;21.81;50.34;100856.94;5058113;28;47087;-86
2021/08/21 03:16:29;;;;;;;;;5.00;4.50;;;;;21.71;50.26;100843.84;5076266;28;45909;-87
2021/08/21 03:18:54;;;;;;;;;4.75;4.75;;;;;21.79;50.22;100858.97;5057797;28;46044;-86
2021/08/21 03:21:19;;;;;;;;;6.25;5.00;;;;;21.45;50.59;100805.16;5092468;27;47409;-86
2021/08/21 03:23:45;;;;;;;;;6.00;6.00;;;;;21.73;50.07;100857.84;5076341;28;46481;-86
2021/08/21 03:26:12;;;;;;;;;5.00;5.00;;;;;21.61;50.49;100829.91;5057243;28;45610;-85
2021/08/21 03:28:37;;;;;;;;;5.25;4.00;;;;;21.61;50.25;100831.72;5079186;28;45778;-85
2021/08/21 03:31:03;;;;;;;;;5.00;5.00;;;;;21.73;50.46;100852.50;5060750;28;47460;-86
2021/08/21 03:33:28;;;;;;;;;4.75;4.75;;;;;21.74;50.41;100859.50;5060567;28;47861;-86
2021/08/21 03:39:29;;;;;;;;;5.50;5.50;;;;;21.66;50.52;100854.22;5046334;28;45681;-86
2021/08/21 03:41:55;;;;;;;;;5.25;5.00;;;;;21.39;50.87;100811.19;5041323;28;45665;-86
2021/08/21 03:44:20;;;;;;;;;6.00;6.00;;;;;21.64;50.82;100855.41;5027357;28;47686;-85
2021/08/21 03:46:45;;;;;;;;;6.75;6.25;;;;;21.48;50.65;100829.66;5047856;28;45216;-86
2021/08/21 03:49:11;;;;;;;;;5.50;5.00;;;;;21.61;51.23;100851.22;5045528;28;45791;-86
2021/08/21 03:51:37;;;;;;;;;6.25;5.00;;;;;21.30;51.30;100802.41;5044113;28;45814;-86
2021/08/21 03:54:02;;;;;;;;;7.00;5.75;;;;;21.36;51.10;100815.03;5049646;28;46580;-86
2021/08/21 03:56:28;;;;;;;;;5.50;4.50;;;;;21.34;50.98;100817.88;5029489;28;45461;-85
2021/08/21 03:58:53;;;;;;;;;4.00;4.00;;;;;21.54;50.83;100847.59;5027023;28;45833;-86
2021/08/21 04:01:18;;;;;;;;;6.50;5.00;;;;;21.51;50.98;100847.94;5027951;28;48570;-85
2021/08/21 04:03:44;;;;;;;;;4.75;4.50;;;;;21.30;51.08;100797.91;5025421;28;47251;-85
2021/08/21 04:09:31;;;;;;;;;7.00;6.25;;;;;21.51;51.02;100841.78;5039446;28;45658;-86
2021/08/21 04:11:57;;;;;;;;;5.00;5.00;;;;;21.41;51.06;100820.69;5040205;28;45641;-86
2021/08/21 04:14:22;;;;;;;;;6.25;5.25;;;;;21.40;51.07;100812.84;5040759;28;45654;-87
2021/08/21 04:16:48;;;;;;;;;7.00;6.50;;;;;21.31;51.08;100793.41;5026041;28;45607;-86
2021/08/21 04:19:13;;;;;;;;;6.25;6.00;;;;;21.37;51.34;100814.03;5058860;28;45677;-85
2021/08/21 04:21:40;;;;;;;;;5.25;5.25;;;;;21.30;51.14;100803.22;5041308;28;45578;-86
2021/08/21 04:24:06;;;;;;;;;6.50;5.25;;;;;21.18;51.76;100785.13;5020558;28;48402;-86
2021/08/21 04:26:31;;;;;;;;;4.00;4.00;;;;;21.34;51.42;100814.38;5041229;28;45581;-85
2021/08/21 04:28:57;;;;;;;;;6.50;6.00;;;;;21.41;51.53;100827.84;5057127;28;45609;-85
2021/08/21 04:31:22;;;;;;;;;5.75;5.50;;;;;21.24;51.39;100809.25;5023835;28;47680;-84
2021/08/21 04:33:47;;;;;;;;;6.00;5.00;;;;;21.34;51.40;100825.88;5058336;28;47557;-87
2021/08/21 04:39:35;;;;;;;;;6.00;6.00;;;;;21.32;51.56;100822.53;5056011;28;45631;-86
2021/08/21 04:42:00;;;;;;;;;7.00;6.00;;;;;21.31;51.57;100828.06;5046310;28;48475;-84
2021/08/21 04:44:26;;;;;;;;;6.50;6.00;;;;;21.03;51.49;100779.66;5062897;28;45548;-87
2021/08/21 04:46:51;;;;;;;;;7.00;6.00;;;;;21.29;51.77;100822.06;5076879;28;45582;-85
2021/08/21 04:49:17;;;;;;;;;6.00;6.00;;;;;21.08;51.68;100798.63;5062047;28;45596;-86
2021/08/21 04:51:42;;;;;;;;;6.25;5.25;;;;;21.09;51.90;100810.13;5064595;28;46557;-87
2021/08/21 04:54:08;;;;;;;;;5.00;4.75;;;;;21.15;51.64;100815.63;5047073;28;46210;-86
2021/08/21 04:56:33;;;;;;;;;6.50;6.00;;;;;21.06;52.06;100808.63;5065450;28;45650;-87
2021/08/21 04:58:59;;;;;;;;;6.50;6.25;;;;;20.92;52.01;100777.38;5047202;28;45700;-87
2021/08/21 05:01:24;;;;;;;;;5.25;5.25;;;;;21.13;52.10;100819.41;5045313;28;47295;-87
2021/08/21 05:03:50;;;;;;;;;5.75;5.75;;;;;21.19;52.04;100829.44;5038524;28;46987;-86
2021/08/21 05:09:38;;;;;;;;;5.75;5.00;;;;;20.89;52.19;100799.03;5056111;28;45731;-87
2021/08/21 05:12:03;;;;;;;;;7.00;6.00;;;;;21.08;52.61;100837.75;5056457;28;46393;-87
2021/08/21 05:14:29;;;;;;;;;6.50;6.00;;;;;21.07;52.14;100828.09;5038127;28;47812;-88
2021/08/21 05:16:54;;;;;;;;;5.50;5.50;;;;;21.02;52.26;100820.63;5038747;28;45626;-85
2021/08/21 05:24:55;;;;;;;;;6.00;5.00;;;;;20.72;52.33;100778.78;5013685;28;47102;-86
2021/08/21 05:27:23;;;;;;;;;4.75;4.50;;;;;21.03;52.47;100826.78;5013994;28;45591;-86
2021/08/21 05:29:49;;;;;;;;;7.25;6.25;;;;;20.95;52.67;100815.16;4997619;28;45632;-86
2021/08/21 05:32:15;;;;;;;;;7.00;6.00;;;;;21.04;52.62;100833.78;4997008;28;47646;-87
2021/08/21 05:34:40;;;;;;;;;6.00;5.00;;;;;21.03;52.86;100834.78;4996668;28;47949;-87
2021/08/21 05:37:06;;;;;;;;;6.00;6.00;;;;;21.04;52.71;100829.28;5013709;28;45706;-87
2021/08/21 05:39:32;;;;;;;;;6.25;6.25;;;;;20.90;52.44;100812.16;5013475;28;45783;-87
2021/08/21 05:41:58;;;;;;;;;7.00;6.25;;;;;21.14;52.57;100856.59;4996741;28;46397;-87
2021/08/21 05:44:24;;;;;;;;;6.00;6.00;;;;;20.83;52.64;100799.72;5012975;28;48037;-86
2021/08/21 05:46:49;;;;;;;;;7.75;6.75;;;;;21.06;53.11;100839.75;5013046;28;45835;-87
2021/08/21 05:49:15;;;;;;;;;6.25;5.50;;;;;20.80;52.70;100797.38;5013229;28;45645;-87
2021/08/21 05:55:02;;;;;;;;;7.00;6.25;;;;;21.13;53.00;100843.41;5013195;28;46112;-88
2021/08/21 05:57:29;;;;;;;;;6.75;6.25;;;;;21.04;52.96;100837.28;5013445;28;45791;-84
2021/08/21 05:59:54;;;;;;;;;8.00;8.00;;;;;20.96;53.00;100831.97;5013572;28;45862;-88
2021/08/21 06:02:21;;;;;;;;;9.50;8.00;;;;;21.09;52.86;100845.59;5051921;28;46453;-87
2021/08/21 06:04:46;;;;;;;;;7.75;6.75;;;;;21.13;53.20;100865.56;5055809;28;46005;-86
2021/08/21 06:07:12;;;;;;;;;7.75;7.00;;;;;20.97;53.08;100836.28;5055824;28;45620;-86
2021/08/21 06:09:37;;;;;;;;;6.75;5.25;;;;;20.91;52.93;100821.81;5037510;28;45603;-87
2021/08/21 06:12:04;;;;;;;;;7.00;7.00;;;;;21.11;52.95;100861.38;5076268;28;45611;-85
2021/08/21 06:14:30;;;;;;;;;8.00;7.75;;;;;20.85;53.25;100819.84;5090422;28;47067;-85
2021/08/21 06:16:55;;;;;;;;;7.25;6.50;;;;;21.04;53.30;100847.09;5043988;28;45708;-86
2021/08/21 06:19:21;;;;;;;;;7.25;6.00;;;;;20.78;53.42;100802.06;5057681;28;45654;-85
2021/08/21 06:25:09;;;;;;;;;7.00;5.25;;;;;20.99;53.64;100838.78;5056853;28;45718;-86
2021/08/21 06:27:36;;;;;;;;;5.50;5.50;;;;;20.98;53.08;100832.63;5062543;28;45746;-85
2021/08/21 06:30:02;;;;;;;;;8.25;7.50;;;;;21.05;53.10;100844.28;5060967;28;45642;-86
2021/08/21 06:32:27;;;;;;;;;7.50;7.00;;;;;20.82;53.50;100806.03;5056663;28;45703;-86
2021/08/21 06:34:52;;;;;;;;;7.00;6.00;;;;;20.94;53.78;100823.31;5072588;28;48411;-85
2021/08/21 06:37:18;;;;;;;;;8.00;6.00;;;;;20.68;53.65;100772.94;5056301;28;45534;-86
2021/08/21 06:39:43;;;;;;;;;9.00;6.75;;;;;21.04;53.34;100823.97;5039907;28;45918;-85
2021/08/21 06:42:08;;;;;;;;;6.00;6.00;;;;;21.12;53.75;100836.41;5039709;28;46520;-86
2021/08/21 06:44:34;;;;;;;;;8.00;6.00;;;;;21.10;54.03;100827.78;5059276;28;45467;-84
2021/08/21 06:46:59;;;;;;;;;6.00;5.75;;;;;20.95;53.96;100804.47;5047773;28;45538;-86
2021/08/21 06:49:25;;;;;;;;;7.50;6.75;;;;;20.96;53.58;100794.66;5044100;28;45687;-86
2021/08/21 06:55:12;;;;;;;;;6.25;6.25;;;;;21.14;53.71;100816.63;5061687;28;45648;-86
2021/08/21 06:57:37;;;;;;;;;9.50;8.25;;;;;20.98;53.89;100790.00;5055611;28;45464;-86
2021/08/21 07:00:03;;;;;;;;;6.25;6.25;;;;;20.85;54.02;100758.56;5036673;28;45872;-86
2021/08/21 07:02:29;;;;;;;;;7.00;6.00;;;;;21.29;53.67;100830.06;5056057;28;45730;-85
2021/08/21 07:04:54;;;;;;;;;7.25;7.00;;;;;21.28;53.72;100815.06;5039768;28;48246;-86
2021/08/21 07:07:19;;;;;;;;;8.50;8.00;;;;;21.02;53.75;100774.50;5039461;28;45845;-86
2021/08/21 07:09:45;;;;;;;;;7.75;6.75;;;;;21.22;54.30;100808.59;5039709;28;45822;-86
2021/08/21 07:12:11;;;;;;;;;6.25;6.25;;;;;21.16;53.84;100800.47;5039651;28;47573;-85
2021/08/21 07:14:36;;;;;;;;;7.50;7.00;;;;;21.44;53.61;100844.31;5040310;28;47502;-86
2021/08/21 07:17:02;;;;;;;;;11.00;8.00;;;;;21.03;53.87;100765.50;5040191;28;45646;-87
2021/08/21 07:19:27;;;;;;;;;7.50;6.25;;;;;21.50;54.06;100848.13;5040443;28;45757;-86
2021/08/21 07:25:15;;;;;;;;;8.00;7.75;;;;;21.55;53.92;100838.59;5060165;28;45995;-86
2021/08/21 07:27:40;;;;;;;;;8.50;7.00;;;;;21.42;54.09;100829.50;5076209;28;45975;-87
2021/08/21 07:30:07;;;;;;;;;8.00;7.25;;;;;21.17;54.14;100783.47;5059916;28;45536;-86
2021/08/21 07:32:33;;;;;;;;;6.50;6.00;;;;;21.47;54.06;100827.16;5041027;28;46557;-86
2021/08/21 07:34:58;;;;;;;;;7.75;7.50;;;;;21.52;54.21;100835.47;5041174;28;46306;-86
2021/08/21 07:37:24;;;;;;;;;6.75;6.75;;;;;21.37;53.82;100814.03;5075940;28;46089;-86
2021/08/21 07:39:50;;;;;;;;;6.00;5.25;;;;;21.59;53.55;100834.56;5042267;28;45662;-86
2021/08/21 07:42:15;;;;;;;;;6.75;6.75;;;;;21.75;54.09;100858.47;5041581;28;48405;-87
2021/08/21 07:44:41;;;;;;;;;8.00;7.25;;;;;21.62;54.18;100828.91;5058231;28;45736;-85
2021/08/21 07:47:07;;;;;;;;;6.00;6.00;;;;;21.65;53.83;100835.69;5039713;28;46223;-86
2021/08/21 07:49:32;;;;;;;;;7.50;5.50;;;;;21.83;53.79;100854.94;5039481;28;45563;-85
2021/08/21 07:55:20;;;;;;;;;6.00;6.00;;;;;21.91;54.15;100852.25;5057839;28;46000;-87
2021/08/21 07:57:45;;;;;;;;;7.00;6.50;;;;;21.86;54.19;100832.44;5073245;28;45691;-87
2021/08/21 08:00:11;;;;;;;;;6.00;5.50;;;;;21.81;53.67;100818.81;5073118;28;46040;-86
2021/08/21 08:02:36;;;;;;;;;7.00;7.00;;;;;21.90;53.49;100825.72;5057072;28;45596;-86
2021/08/21 08:05:02;;;;;;;;;7.75;6.75;;;;;21.97;53.51;100843.53;5039244;28;47408;-86
2021/08/21 08:07:27;;;;;;;;;6.50;6.25;;;;;21.61;54.07;100778.41;5039158;28;45787;-86
2021/08/21 08:09:53;;;;;;;;;7.50;6.75;;;;;21.85;54.15;100814.75;5073393;28;45537;-86
2021/08/21 08:12:18;;;;;;;;;8.00;7.00;;;;;22.14;53.49;100855.75;5039081;28;47381;-86
2021/08/21 08:14:44;;;;;;;;;6.75;6.75;;;;;22.08;53.85;100836.97;5038597;28;48506;-87
2021/08/21 08:17:09;;;;;;;;;7.50;7.00;;;;;22.21;53.86;100847.88;5057504;28;45715;-87
2021/08/21 08:19:37;;;;;;;;;7.00;7.00;;;;;22.24;53.76;100839.50;5038957;28;45939;-87
2021/08/21 08:25:24;;;;;;;;;7.50;7.25;;;;;22.35;53.56;100852.44;5058820;28;45464;-87
2021/08/21 08:27:50;;;;;;;;;7.75;7.75;;;;;22.10;53.82;100794.91;5041322;28;45743;-87
2021/08/21 08:30:16;;;;;;;;;7.00;6.25;;;;;22.27;53.52;100812.47;5041827;28;45908;-86
2021/08/21 08:32:43;;;;;;;;;5.50;5.50;;;;;22.24;53.42;100796.00;5060272;28;47451;-85
2021/08/21 08:41:49;;;;;;;;;6.00;5.25;;;;;22.41;53.56;100817.00;5063219;28;45406;-87
2021/08/21 08:44:15;;;;;;;;;9.00;6.75;;;;;22.48;52.83;100812.63;5078466;28;47738;-87
2021/08/21 08:46:42;;;;;;;;;6.75;6.75;;;;;22.75;53.09;100845.09;5046210;28;48565;-86
2021/08/21 08:49:08;;;;;;;;;7.25;7.25;;;;;22.63;53.08;100809.97;5059119;28;45581;-87
2021/08/21 08:54:55;;;;;;;;;7.00;6.25;;;;;22.65;53.55;100809.78;5057303;28;46143;-86
2021/08/21 08:57:38;;;;;;;;;7.50;6.00;;;;;22.96;53.58;100851.41;5073211;28;48419;-87
2021/08/21 09:00:11;;;;;;;;;6.00;6.00;;;;;22.99;52.86;100850.22;5039573;28;45645;-87
2021/08/21 09:03:03;;;;;;;;;6.50;6.00;;;;;23.05;53.39;100854.78;5059516;28;45625;-87
2021/08/21 09:05:40;;;;;;;;;7.75;6.75;;;;;22.94;52.94;100826.69;5038208;28;48515;-88
2021/08/21 09:08:05;;;;;;;;;7.75;6.00;;;;;23.05;52.92;100846.78;5042288;28;48342;-87
2021/08/21 09:10:33;;;;;;;;;9.50;7.75;;;;;23.22;52.90;100858.94;5045435;28;45587;-86
2021/08/21 09:13:09;;;;;;;;;5.50;5.50;;;;;23.28;53.20;100844.84;5078819;28;45563;-86
2021/08/21 09:15:36;;;;;;;;;9.25;8.50;;;;;23.22;52.93;100842.91;5042439;28;47614;-87
2021/08/21 09:18:08;;;;;;;;;7.75;7.00;;;;;23.38;53.18;100847.22;5042805;28;47239;-87
2021/08/21 09:20:49;;;;;;;;;8.50;6.75;;;;;23.46;52.58;100854.38;5078748;28;45609;-88
2021/08/21 09:23:29;;;;;;;;;8.00;8.00;;;;;23.29;52.86;100824.28;5062852;28;45642;-85
2021/08/21 09:26:06;;;;;;;;;8.50;6.75;;;;;23.31;52.61;100815.06;5063423;28;46062;-87
2021/08/21 09:28:32;;;;;;;;;8.75;7.25;;;;;23.54;52.97;100846.22;5075620;28;47245;-87
2021/08/21 09:31:08;;;;;;;;;8.00;7.25;;;;;23.66;52.65;100858.09;5045000;28;45680;-86
2021/08/21 09:33:36;;;;;;;;;6.25;6.25;;;;;23.71;53.13;100858.38;5078619;28;45569;-85
2021/08/21 09:36:02;;;;;;;;;7.25;7.00;;;;;23.56;53.02;100822.78;5061251;28;45777;-86
2021/08/21 09:38:32;;;;;;;;;6.00;6.00;;;;;23.80;52.82;100838.53;5059877;28;45958;-86
2021/08/21 09:41:00;;;;;;;;;7.50;7.00;;;;;23.59;52.71;100807.19;5041074;28;45579;-87
2021/08/21 09:43:28;;;;;;;;;6.25;6.00;;;;;23.68;52.47;100797.22;5073845;28;45529;-85
2021/08/21 09:46:10;;;;;;;;;7.25;7.00;;;;;23.99;52.48;100839.75;5038429;28;47573;-85
2021/08/21 09:48:59;;;;;;;;;6.50;6.25;;;;;23.99;52.57;100826.34;5038081;28;47888;-85
2021/08/21 09:51:32;;;;;;;;;8.50;8.00;;;;;24.06;52.41;100809.34;5038085;28;45740;-86
2021/08/21 09:54:02;;;;;;;;;9.75;8.00;;;;;23.89;52.59;100775.00;5037908;28;45801;-84
2021/08/21 09:56:53;;;;;;;;;7.00;6.25;;;;;24.27;52.42;100824.59;5037478;28;46670;-85
2021/08/21 09:59:36;;;;;;;;;9.00;8.25;;;;;24.15;52.47;100794.78;5037572;28;47427;-88
2021/08/21 10:02:14;;;;;;;;;10.00;7.00;;;;;24.28;52.75;100795.97;5056119;28;45711;-86
2021/08/21 10:04:42;;;;;;;;;7.00;6.75;;;;;24.34;52.57;100789.84;5073253;28;45722;-85
2021/08/21 10:07:10;;;;;;;;;8.00;7.00;;;;;24.42;52.17;100803.06;5070851;28;48218;-86
2021/08/21 10:09:38;;;;;;;;;9.75;8.00;;;;;24.66;52.36;100826.78;5038202;28;46083;-85
2021/08/21 10:12:06;;;;;;;;;9.00;8.00;;;;;24.59;52.24;100804.44;5038254;28;45721;-87
2021/08/21 10:14:33;;;;;;;;;7.50;7.50;;;;;24.83;51.90;100825.41;5038351;28;45683;-86
2021/08/21 10:17:00;;;;;;;;;7.00;7.00;;;;;24.62;51.89;100778.06;5057226;28;45625;-85
2021/08/21 10:19:26;;;;;;;;;9.00;8.00;;;;;24.79;51.74;100797.38;5039641;28;48214;-85
2021/08/21 10:21:57;;;;;;;;;6.00;6.00;;;;;25.07;51.83;100825.00;5040419;28;45484;-87
2021/08/21 10:24:36;;;;;;;;;7.25;7.25;;;;;24.89;51.53;100786.31;5041109;28;45613;-85
2021/08/21 10:27:13;;;;;;;;;7.25;7.25;;;;;25.26;51.81;100830.66;5042395;28;46520;-88
2021/08/21 10:29:39;;;;;;;;;7.25;6.75;;;;;25.02;51.38;100773.00;5026343;28;48580;-86
2021/08/21 10:32:44;;;;;;;;;8.00;8.00;;;;;25.28;51.29;100801.78;5043251;28;45708;-86
2021/08/21 10:35:12;;;;;;;;;10.00;8.75;;;;;25.16;51.21;100769.31;5062209;28;45709;-86
2021/08/21 10:37:46;;;;;;;;;8.00;7.75;;;;;25.56;51.37;100809.75;5049011;28;47887;-85
2021/08/21 10:40:26;;;;;;;;;8.75;8.25;;;;;25.64;50.64;100823.00;5083167;28;47231;-84
2021/08/21 10:42:56;;;;;;;;;7.50;6.25;;;;;25.72;50.78;100818.28;5069302;28;45755;-84
2021/08/21 10:45:41;;;;;;;;;8.25;7.25;;;;;25.82;50.82;100818.72;5074312;28;45822;-85
2021/08/21 10:48:10;;;;;;;;;7.00;7.00;;;;;25.90;50.74;100815.00;5081010;28;45672;-85
2021/08/21 10:50:42;;;;;;;;;8.00;7.00;;;;;25.72;50.02;100783.38;5080758;28;45445;-85
2021/08/21 10:53:09;;;;;;;;;8.00;8.00;;;;;25.94;50.30;100812.75;5064058;28;45618;-88
2021/08/21 10:55:37;;;;;;;;;8.75;7.50;;;;;26.01;50.37;100813.59;5081799;28;45496;-87
2021/08/21 10:58:09;;;;;;;;;7.50;6.50;;;;;26.07;50.35;100799.34;5075778;28;45650;-85
2021/08/21 11:00:48;;;;;;;;;8.00;8.00;;;;;26.23;49.66;100809.72;5070971;28;45505;-85
2021/08/21 11:03:21;;;;;;;;;8.75;7.00;;;;;26.25;50.08;100811.16;5084158;28;45096;-86
2021/08/21 11:09:01;;;;;;;;;7.00;6.75;;;;;26.45;49.53;100805.75;5082126;28;45252;-87
2021/08/21 11:11:49;;;;;;;;;8.00;7.25;;;;;26.28;49.73;100777.69;5082670;28;45309;-86
2021/08/21 11:14:21;;;;;;;;;8.25;8.00;;;;;26.59;49.32;100818.16;5099050;28;45677;-83
2021/08/21 11:16:54;;;;;;;;;7.00;6.50;;;;;26.65;49.45;100813.81;5093807;28;45502;-86
2021/08/21 11:19:25;;;;;;;;;10.75;9.75;;;;;26.60;49.28;100786.75;5073281;28;45713;-88
2021/08/21 11:25:12;;;;;;;;;6.25;6.25;;;;;26.56;49.39;100782.84;5067217;28;45504;-85
2021/08/21 11:27:38;;;;;;;;;7.00;7.00;;;;;26.81;49.03;100815.25;5067909;28;45750;-86
2021/08/21 11:30:15;;;;;;;;;7.25;7.25;;;;;26.84;49.47;100821.03;5062838;28;45652;-84
2021/08/21 11:32:53;;;;;;;;;8.75;7.25;;;;;26.78;48.71;100797.66;5080148;28;47439;-85
2021/08/21 11:35:53;;;;;;;;;7.00;7.00;;;;;26.92;49.25;100812.78;5063405;28;45553;-86
2021/08/21 11:41:54;;;;;;;;;8.00;8.00;;;;;26.86;48.73;100797.44;5064712;28;46107;-85
2021/08/21 11:44:27;;;;;;;;;7.50;7.00;;;;;26.91;49.01;100792.28;5065034;28;45703;-85
2021/08/21 11:47:09;;;;;;;;;7.25;7.00;;;;;26.99;48.66;100807.38;5043463;28;45547;-84
2021/08/21 11:49:34;;;;;;;;;8.00;7.00;;;;;26.78;48.36;100769.94;5061340;28;45427;-87
2021/08/21 11:55:23;;;;;;;;;8.00;7.00;;;;;27.19;48.02;100818.06;5065808;28;45858;-86
2021/08/21 11:57:50;;;;;;;;;6.50;6.50;;;;;27.20;48.04;100809.78;5065169;28;45646;-85
2021/08/21 12:00:19;;;;;;;;;7.50;6.50;;;;;27.20;47.69;100796.34;5068143;28;45341;-83
2021/08/21 12:02:50;;;;;;;;;5.00;5.00;;;;;27.39;48.21;100816.94;5069970;28;45508;-85
2021/08/21 12:05:25;;;;;;;;;6.50;6.50;;;;;27.45;48.10;100816.09;5050488;28;47305;-84
2021/08/21 12:11:12;;;;;;;;;5.75;5.50;;;;;27.45;47.81;100807.19;5064545;28;45661;-85
2021/08/21 12:13:39;;;;;;;;;6.50;6.00;;;;;27.52;47.93;100808.84;5048404;28;47198;-85
2021/08/21 12:16:12;;;;;;;;;7.00;7.00;;;;;27.47;47.95;100788.97;5065092;28;45993;-83
2021/08/21 12:18:40;;;;;;;;;7.75;7.50;;;;;27.36;47.69;100766.25;5048123;28;45564;-86
2021/08/21 12:21:09;;;;;;;;;7.25;7.00;;;;;27.67;47.43;100813.94;5065458;28;45538;-83
2021/08/21 12:26:56;;;;;;;;;7.00;7.00;;;;;27.67;48.17;100796.97;5066683;28;45767;-82
2021/08/21 12:29:30;;;;;;;;;0.00;0.00;;;;;27.58;47.80;100779.41;5069086;28;45528;-84
2021/08/21 12:31:59;;;;;;;;;7.00;7.00;;;;;27.57;47.34;100770.50;5069678;28;45511;-85
2021/08/21 12:34:26;;;;;;;;;6.75;6.75;;;;;27.53;46.95;100763.91;5054114;28;47901;-84
2021/08/21 12:36:53;;;;;;;;;8.00;8.00;;;;;27.81;47.53;100810.13;5054047;28;48127;-86
2021/08/21 12:39:27;;;;;;;;;6.00;6.00;;;;;27.78;47.57;100798.97;5066049;28;45660;-85
2021/08/21 12:41:55;;;;;;;;;6.75;6.25;;;;;27.83;47.12;100821.53;5046061;28;45818;-87
2021/08/21 12:44:34;;;;;;;;;6.25;6.25;;;;;27.50;47.59;100756.25;5066708;28;45515;-86
2021/08/21 12:47:02;;;;;;;;;5.75;4.75;;;;;27.81;46.94;100793.13;5083039;28;48199;-86
2021/08/21 12:49:53;;;;;;;;;8.00;6.50;;;;;27.80;47.51;100796.91;5083690;28;45863;-85
2021/08/21 12:52:29;;;;;;;;;6.00;6.00;;;;;27.60;47.16;100758.47;5026962;28;45351;-88
2021/08/21 12:55:04;;;;;;;;;7.00;6.00;;;;;27.81;47.21;100788.56;5026605;28;47419;-85
2021/08/21 12:57:33;;;;;;;;;7.00;7.00;;;;;27.88;46.97;100805.53;5023141;28;45842;-86
2021/08/21 13:00:17;;;;;;;;;7.00;5.25;;;;;27.67;46.76;100768.16;5025044;28;45586;-85